Time;durP1;ratioP1;P1;durP2;ratioP2;P2;SDS_P1;SDS_P2;PMS_P1;PMS_P2;Temp;Humidity;BMP_temperature;BMP_pressure;BME280_temperature;BME280_humidity;BME280_pressure;Samples;Min_cycle;Max_cycle;Signal;HPM_P1;HPM_P2
2022/10/28 00:00:55;;;;;;;;;;;;;;;21.50;65.74;100203.28;7316098;19;129040;-36
2022/10/28 00:03:20;;;;;;;;;;;;;;;21.52;65.97;100201.38;7316316;19;129683;-34
2022/10/28 00:05:46;;;;;;;;;;;;;;;21.51;65.80;100194.50;7313791;19;129569;-37
2022/10/28 00:08:11;;;;;;;;;;;;;;;21.50;65.70;100186.78;7314695;19;128929;-34
2022/10/28 00:10:36;;;;;;;;;;;;;;;21.51;65.82;100183.19;7316436;19;129077;-35
2022/10/28 00:13:01;;;;;;;;;;;;;;;21.49;65.80;100190.31;7315999;19;129446;-36
2022/10/28 00:15:26;;;;;;;;;;;;;;;21.49;66.24;100199.00;7313955;19;129223;-35
2022/10/28 00:17:52;;;;;;;;;;;;;;;21.44;65.93;100182.88;7314175;19;129088;-33
2022/10/28 00:20:17;;;;;;;;;;;;;;;21.47;65.47;100193.06;7314909;19;129597;-32
2022/10/28 00:22:42;;;;;;;;;;;;;;;21.51;65.96;100188.44;7315495;19;129400;-36
2022/10/28 00:25:08;;;;;;;;;;;;;;;21.50;65.78;100192.81;7312347;19;129056;-36
2022/10/28 00:27:33;;;;;;;;;;;;;;;21.51;65.45;100202.34;7315244;19;129553;-35
2022/10/28 00:29:59;;;;;;;;;;;;;;;21.49;65.63;100195.56;7313798;19;129052;-35
2022/10/28 00:32:24;;;;;;;;;;;;;;;21.47;66.16;100192.25;7315371;19;129149;-31
2022/10/28 00:34:49;;;;;;;;;;;;;;;21.49;66.31;100195.56;7313922;19;129304;-34
2022/10/28 00:37:15;;;;;;;;;;;;;;;21.51;65.82;100199.72;7313164;19;129288;-35
2022/10/28 00:39:40;;;;;;;;;;;;;;;21.45;65.97;100175.84;7314571;19;129095;-34
2022/10/28 00:42:06;;;;;;;;;;;;;;;21.49;65.87;100185.94;7315778;19;129228;-35
2022/10/28 00:44:49;;;;;;;;;;;;;;;21.52;65.72;100190.06;7314508;19;129103;-34
2022/10/28 00:47:33;;;;;;;;;;;;;;;21.40;65.96;100170.97;7314359;19;129192;-35
2022/10/28 00:50:04;;;;;;;;;;;;;;;21.50;66.06;100192.81;7314600;19;129120;-36
2022/10/28 00:52:30;;;;;;;;;;;;;;;21.51;65.43;100184.03;7314672;19;129484;-36
2022/10/28 00:54:56;;;;;;;;;;;;;;;21.53;65.22;100182.13;7309104;19;129322;-35
2022/10/28 00:57:25;;;;;;;;;;;;;;;21.52;65.26;100180.44;7314420;19;130633;-32
2022/10/28 00:59:52;;;;;;;;;;;;;;;21.51;66.04;100175.34;7313885;19;129153;-35
2022/10/28 01:02:18;;;;;;;;;;;;;;;21.51;65.87;100184.03;7313697;19;129220;-34
2022/10/28 01:04:43;;;;;;;;;;;;;;;21.47;65.80;100177.38;7311162;19;129043;-33
2022/10/28 01:07:09;;;;;;;;;;;;;;;21.48;65.73;100179.06;7313789;19;129515;-36
2022/10/28 01:09:34;;;;;;;;;;;;;;;21.54;66.12;100182.94;7313946;19;129094;-35
2022/10/28 01:12:16;;;;;;;;;;;;;;;21.53;65.54;100176.06;7314032;19;129364;-33
2022/10/28 01:14:41;;;;;;;;;;;;;;;21.56;65.27;100175.81;7313389;19;130036;-35
2022/10/28 01:17:25;;;;;;;;;;;;;;;21.53;65.54;100166.44;7312340;19;129191;-34
2022/10/28 01:19:53;;;;;;;;;;;;;;;21.54;65.77;100152.38;7313082;19;130009;-36
2022/10/28 01:22:28;;;;;;;;;;;;;;;21.52;65.37;100156.06;7313626;19;131345;-37
2022/10/28 01:25:02;;;;;;;;;;;;;;;21.52;65.44;100166.53;7312238;19;129567;-36
2022/10/28 01:27:27;;;;;;;;;;;;;;;21.51;65.68;100155.25;7312633;19;129242;-34
2022/10/28 01:30:06;;;;;;;;;;;;;;;21.59;65.63;100158.06;7314158;19;130273;-35
2022/10/28 01:32:52;;;;;;;;;;;;;;;21.53;65.87;100171.66;7312144;19;131379;-35
2022/10/28 01:35:30;;;;;;;;;;;;;;;21.52;65.69;100153.44;7311567;19;130833;-37
2022/10/28 01:37:59;;;;;;;;;;;;;;;21.50;66.13;100166.66;7311210;19;128949;-34
2022/10/28 01:40:42;;;;;;;;;;;;;;;21.55;65.58;100154.03;7313901;19;129228;-36
2022/10/28 01:43:25;;;;;;;;;;;;;;;21.44;65.71;100141.00;7312538;19;130979;-36
2022/10/28 01:46:09;;;;;;;;;;;;;;;21.52;65.39;100149.06;7310729;19;129153;-37
2022/10/28 01:48:38;;;;;;;;;;;;;;;21.58;65.34;100153.81;7312857;19;130627;-36
2022/10/28 01:51:10;;;;;;;;;;;;;;;21.52;65.85;100159.53;7311319;19;129577;-35
2022/10/28 01:53:38;;;;;;;;;;;;;;;21.51;65.54;100163.09;7312572;19;129315;-35
2022/10/28 01:56:06;;;;;;;;;;;;;;;21.50;65.30;100164.03;7312173;19;129525;-35
2022/10/28 01:58:32;;;;;;;;;;;;;;;21.50;65.90;100161.41;7313312;19;128945;-34
2022/10/28 02:00:59;;;;;;;;;;;;;;;21.50;65.87;100161.41;7311453;19;130593;-36
2022/10/28 02:03:25;;;;;;;;;;;;;;;21.52;65.65;100164.75;7311702;19;130580;-35
2022/10/28 02:05:52;;;;;;;;;;;;;;;21.52;65.50;100159.53;7310889;19;129160;-35
2022/10/28 02:08:17;;;;;;;;;;;;;;;21.55;65.25;100156.66;7319099;19;129361;-33
2022/10/28 02:10:54;;;;;;;;;;;;;;;21.54;65.78;100152.38;7320188;19;129514;-36
2022/10/28 02:13:21;;;;;;;;;;;;;;;21.49;65.66;100151.94;7319271;19;129287;-35
2022/10/28 02:15:54;;;;;;;;;;;;;;;21.38;66.07;100146.75;7319209;19;129116;-36
2022/10/28 02:18:33;;;;;;;;;;;;;;;21.51;65.87;100154.41;7317537;19;128993;-36
2022/10/28 02:21:04;;;;;;;;;;;;;;;21.52;65.49;100151.66;7319405;19;129141;-35
2022/10/28 02:23:39;;;;;;;;;;;;;;;21.51;65.87;100147.41;7318939;19;129303;-35
2022/10/28 02:26:26;;;;;;;;;;;;;;;21.53;66.12;100142.88;7317555;19;129291;-36
2022/10/28 02:29:04;;;;;;;;;;;;;;;21.55;65.30;100143.56;7318876;19;129536;-35
2022/10/28 02:31:47;;;;;;;;;;;;;;;21.52;65.48;100138.59;7317353;19;130141;-30
2022/10/28 02:34:16;;;;;;;;;;;;;;;21.50;65.70;100143.13;7318138;19;129207;-34
2022/10/28 02:36:44;;;;;;;;;;;;;;;21.47;65.82;100145.97;7317757;19;129562;-35
2022/10/28 02:39:09;;;;;;;;;;;;;;;21.49;65.70;100149.31;7319375;19;129122;-36
2022/10/28 02:41:35;;;;;;;;;;;;;;;21.53;66.08;100149.91;7317117;19;130242;-36
2022/10/28 02:44:05;;;;;;;;;;;;;;;21.54;65.98;100136.69;7319678;19;130148;-35
2022/10/28 02:46:32;;;;;;;;;;;;;;;21.48;66.11;100137.19;7315056;19;129247;-35
2022/10/28 02:48:59;;;;;;;;;;;;;;;21.50;65.87;100132.66;7319186;19;129251;-37
2022/10/28 02:51:35;;;;;;;;;;;;;;;21.51;65.44;100131.72;7318355;19;130976;-37
2022/10/28 02:54:03;;;;;;;;;;;;;;;21.52;65.87;100133.34;7318114;19;129150;-34
2022/10/28 02:56:31;;;;;;;;;;;;;;;21.48;65.84;100134.59;7314770;19;129069;-36
2022/10/28 02:58:56;;;;;;;;;;;;;;;21.51;66.15;100138.72;7317979;19;131327;-36
2022/10/28 03:01:21;;;;;;;;;;;;;;;21.39;65.66;100111.78;7317999;19;131195;-36
2022/10/28 03:03:47;;;;;;;;;;;;;;;21.51;65.29;100136.09;7318117;19;129137;-35
2022/10/28 03:06:12;;;;;;;;;;;;;;;21.52;66.35;100137.75;7315425;19;129107;-35
2022/10/28 03:08:37;;;;;;;;;;;;;;;21.54;65.59;100131.44;7318834;19;129285;-36
2022/10/28 03:11:02;;;;;;;;;;;;;;;21.52;65.49;100135.97;7317927;19;129484;-35
2022/10/28 03:13:28;;;;;;;;;;;;;;;21.55;65.92;100133.09;7317378;19;129341;-35
2022/10/28 03:15:53;;;;;;;;;;;;;;;21.55;65.58;100127.88;7316869;19;129524;-35
2022/10/28 03:18:18;;;;;;;;;;;;;;;21.57;65.79;100141.66;7313067;19;129419;-36
2022/10/28 03:20:43;;;;;;;;;;;;;;;21.54;65.80;100136.69;7317210;19;129338;-35
2022/10/28 03:23:09;;;;;;;;;;;;;;;21.55;65.94;100137.53;7316024;19;131139;-37
2022/10/28 03:25:34;;;;;;;;;;;;;;;21.53;66.06;100127.19;7316055;19;128940;-36
2022/10/28 03:27:59;;;;;;;;;;;;;;;21.55;65.58;100138.34;7315524;19;129022;-34
2022/10/28 03:30:24;;;;;;;;;;;;;;;21.53;65.82;100127.19;7317471;19;129523;-36
2022/10/28 03:32:49;;;;;;;;;;;;;;;21.50;65.71;100124.78;7315251;19;129825;-37
2022/10/28 03:35:15;;;;;;;;;;;;;;;21.42;65.86;100095.81;7316307;19;129026;-33
2022/10/28 03:37:42;;;;;;;;;;;;;;;21.53;66.02;100119.34;7316044;19;128949;-34
2022/10/28 03:40:08;;;;;;;;;;;;;;;21.52;66.03;100122.06;7317224;19;130257;-36
2022/10/28 03:42:33;;;;;;;;;;;;;;;21.55;65.29;100127.88;7314908;19;131037;-34
2022/10/28 03:44:59;;;;;;;;;;;;;;;21.52;66.08;100125.50;7314905;19;128915;-37
2022/10/28 03:47:24;;;;;;;;;;;;;;;21.51;65.97;100123.03;7315322;19;129138;-34
2022/10/28 03:49:49;;;;;;;;;;;;;;;21.53;65.76;100119.34;7315252;19;129363;-36
2022/10/28 03:52:14;;;;;;;;;;;;;;;21.57;65.78;100125.97;7315386;19;129694;-35
2022/10/28 03:54:39;;;;;;;;;;;;;;;21.53;66.10;100123.72;7316689;19;129829;-37
2022/10/28 03:57:05;;;;;;;;;;;;;;;21.45;65.32;100116.50;7313916;19;130989;-34
2022/10/28 03:59:30;;;;;;;;;;;;;;;21.58;65.33;100125.03;7315157;19;129682;-35
2022/10/28 04:01:55;;;;;;;;;;;;;;;21.56;65.59;100118.25;7314296;19;129694;-35
2022/10/28 04:04:20;;;;;;;;;;;;;;;21.55;65.52;100119.22;7316213;19;129276;-33
2022/10/28 04:06:46;;;;;;;;;;;;;;;21.54;65.85;100117.53;7310418;19;129054;-36
2022/10/28 04:09:11;;;;;;;;;;;;;;;21.51;66.16;100121.25;7315692;19;129510;-36
2022/10/28 04:11:36;;;;;;;;;;;;;;;21.51;65.98;100126.47;7315358;19;130529;-36
2022/10/28 04:14:01;;;;;;;;;;;;;;;21.53;65.43;100118.50;7315684;19;130032;-35
2022/10/28 04:16:26;;;;;;;;;;;;;;;21.51;65.76;100110.78;7314384;19;130425;-35
2022/10/28 04:18:52;;;;;;;;;;;;;;;21.51;66.10;100118.63;7313793;19;130229;-34
2022/10/28 04:21:17;;;;;;;;;;;;;;;21.46;66.18;100101.63;7314754;19;129079;-36
2022/10/28 04:23:42;;;;;;;;;;;;;;;21.52;66.27;100116.81;7314847;19;128754;-36
2022/10/28 04:26:07;;;;;;;;;;;;;;;21.57;65.63;100131.19;7313378;19;129319;-35
2022/10/28 04:28:33;;;;;;;;;;;;;;;21.56;66.15;100119.06;7314054;19;129421;-36
2022/10/28 04:30:58;;;;;;;;;;;;;;;21.62;65.18;100129.03;7313220;19;129285;-36
2022/10/28 04:33:23;;;;;;;;;;;;;;;21.51;66.10;100121.25;7312194;19;129339;-32
2022/10/28 04:35:49;;;;;;;;;;;;;;;21.51;66.02;100123.84;7312687;19;130528;-34
2022/10/28 04:38:14;;;;;;;;;;;;;;;21.39;66.09;100106.56;7309215;19;130799;-37
2022/10/28 04:40:39;;;;;;;;;;;;;;;21.52;65.93;100116.81;7314152;19;130183;-37
2022/10/28 04:43:05;;;;;;;;;;;;;;;21.52;65.94;100109.81;7314545;19;130089;-33
2022/10/28 04:45:31;;;;;;;;;;;;;;;21.55;66.11;100116.59;7311208;19;129212;-34
2022/10/28 04:47:59;;;;;;;;;;;;;;;21.47;66.29;100098.91;7313077;19;129635;-35
2022/10/28 04:50:25;;;;;;;;;;;;;;;21.54;65.86;100107.91;7316441;19;129412;-36
2022/10/28 04:52:50;;;;;;;;;;;;;;;21.55;65.91;100100.91;7314875;19;128724;-35
2022/10/28 04:55:16;;;;;;;;;;;;;;;21.55;66.08;100099.09;7314453;19;129447;-36
2022/10/28 04:57:41;;;;;;;;;;;;;;;21.58;66.00;100091.00;7312389;19;129025;-34
2022/10/28 05:00:06;;;;;;;;;;;;;;;21.56;65.35;100090.31;7313749;19;129152;-35
2022/10/28 05:02:32;;;;;;;;;;;;;;;21.53;66.22;100090.56;7310860;19;130072;-33
2022/10/28 05:05:01;;;;;;;;;;;;;;;21.52;65.69;100086.25;7311708;19;130426;-35
2022/10/28 05:07:26;;;;;;;;;;;;;;;21.51;65.58;100087.22;7310681;19;129785;-33
2022/10/28 05:09:51;;;;;;;;;;;;;;;21.54;65.43;100076.50;7313597;19;129566;-35
2022/10/28 05:12:16;;;;;;;;;;;;;;;21.51;65.61;100082.00;7310524;19;129088;-34
2022/10/28 05:14:42;;;;;;;;;;;;;;;21.53;66.29;100072.25;7312758;19;129434;-37
2022/10/28 05:17:07;;;;;;;;;;;;;;;21.53;65.45;100081.88;7310658;19;129610;-35
2022/10/28 05:19:32;;;;;;;;;;;;;;;21.57;65.63;100076.25;7313329;19;129691;-34
2022/10/28 05:21:58;;;;;;;;;;;;;;;21.55;65.65;100091.25;7314131;19;129882;-35
2022/10/28 05:24:23;;;;;;;;;;;;;;;21.51;66.20;100095.09;7313315;19;129078;-34
2022/10/28 05:26:48;;;;;;;;;;;;;;;21.51;66.47;100094.25;7309495;19;129012;-36
2022/10/28 05:29:13;;;;;;;;;;;;;;;21.51;66.17;100100.31;7312537;19;129132;-33
2022/10/28 05:31:38;;;;;;;;;;;;;;;21.53;65.60;100098.41;7313909;19;129368;-35
2022/10/28 05:34:04;;;;;;;;;;;;;;;21.50;65.68;100093.41;7312630;19;129335;-36
2022/10/28 05:36:29;;;;;;;;;;;;;;;21.57;65.65;100098.97;7312671;19;130077;-35
2022/10/28 05:38:54;;;;;;;;;;;;;;;21.51;65.90;100100.31;7312277;19;129155;-37
2022/10/28 05:41:19;;;;;;;;;;;;;;;21.55;66.11;100101.69;7310382;19;128995;-33
2022/10/28 05:43:45;;;;;;;;;;;;;;;21.54;65.95;100094.81;7313874;19;129264;-36
2022/10/28 05:46:10;;;;;;;;;;;;;;;21.45;66.13;100092.94;7309369;19;130722;-36
2022/10/28 05:48:35;;;;;;;;;;;;;;;21.52;65.98;100101.13;7312319;19;129710;-36
2022/10/28 05:51:00;;;;;;;;;;;;;;;21.53;66.01;100102.81;7310275;19;130527;-34
2022/10/28 05:53:25;;;;;;;;;;;;;;;21.52;66.20;100095.88;7313444;19;129622;-31
2022/10/28 05:55:51;;;;;;;;;;;;;;;21.55;66.02;100096.47;7312071;19;129509;-36
2022/10/28 05:58:16;;;;;;;;;;;;;;;21.59;65.24;100099.66;7310402;19;129591;-35
2022/10/28 06:00:41;;;;;;;;;;;;;;;21.48;65.56;100078.81;7312643;19;128911;-35
2022/10/28 06:03:09;;;;;;;;;;;;;;;21.55;65.88;100093.03;7311310;19;129025;-36
2022/10/28 06:05:44;;;;;;;;;;;;;;;21.53;65.59;100103.66;7310284;19;129306;-33
2022/10/28 06:08:10;;;;;;;;;;;;;;;21.54;65.67;100099.22;7309382;19;129263;-36
2022/10/28 06:10:35;;;;;;;;;;;;;;;21.51;66.11;100100.31;7312646;19;128942;-36
2022/10/28 06:13:00;;;;;;;;;;;;;;;21.52;66.14;100101.97;7310517;19;129103;-35
2022/10/28 06:15:26;;;;;;;;;;;;;;;21.41;66.35;100083.72;7312042;19;129719;-35
2022/10/28 06:17:51;;;;;;;;;;;;;;;21.51;66.26;100099.47;7309859;19;129227;-36
2022/10/28 06:20:17;;;;;;;;;;;;;;;21.56;65.54;100103.38;7312901;19;129488;-36
2022/10/28 06:22:52;;;;;;;;;;;;;;;21.51;65.61;100105.53;7313247;19;128868;-36
2022/10/28 06:25:18;;;;;;;;;;;;;;;21.54;66.05;100107.06;7310071;19;129644;-36
2022/10/28 06:27:43;;;;;;;;;;;;;;;21.54;66.04;100105.28;7310290;19;130252;-34
2022/10/28 06:30:08;;;;;;;;;;;;;;;21.57;65.54;100109.41;7312293;19;129380;-37
2022/10/28 06:32:34;;;;;;;;;;;;;;;21.45;65.95;100090.34;7312065;19;129081;-35
2022/10/28 06:34:59;;;;;;;;;;;;;;;21.53;66.34;100105.41;7311934;19;130150;-32
2022/10/28 06:37:24;;;;;;;;;;;;;;;21.54;65.59;100104.44;7308090;19;129532;-35
2022/10/28 06:39:53;;;;;;;;;;;;;;;21.52;66.37;100109.81;7309216;19;128987;-36
2022/10/28 06:42:18;;;;;;;;;;;;;;;21.54;65.39;100114.91;7310524;19;129207;-37
2022/10/28 06:44:43;;;;;;;;;;;;;;;21.53;66.06;100119.34;7310978;19;129919;-36
2022/10/28 06:47:09;;;;;;;;;;;;;;;21.45;65.54;100106.03;7308943;19;129859;-36
2022/10/28 06:49:34;;;;;;;;;;;;;;;21.55;65.83;100124.44;7311370;19;128773;-34
2022/10/28 06:51:59;;;;;;;;;;;;;;;21.53;66.31;100124.56;7309339;19;129307;-34
2022/10/28 06:54:24;;;;;;;;;;;;;;;21.54;65.67;100130.59;7314659;19;129616;-33
2022/10/28 06:56:50;;;;;;;;;;;;;;;21.54;65.58;100126.22;7317048;19;129743;-33
2022/10/28 06:59:15;;;;;;;;;;;;;;;21.55;66.09;100127.06;7318893;19;129103;-36
2022/10/28 07:01:40;;;;;;;;;;;;;;;21.55;65.23;100121.81;7316685;19;129629;-35
2022/10/28 07:04:07;;;;;;;;;;;;;;;21.55;65.83;100130.47;7318081;19;129576;-36
2022/10/28 07:06:32;;;;;;;;;;;;;;;21.57;65.62;100136.44;7314259;19;129337;-35
2022/10/28 07:08:57;;;;;;;;;;;;;;;21.53;65.46;100124.56;7317455;19;128635;-35
2022/10/28 07:11:23;;;;;;;;;;;;;;;21.53;65.74;100131.59;7317787;19;129062;-34
2022/10/28 07:13:48;;;;;;;;;;;;;;;21.52;66.15;100127.28;7318211;19;129426;-34
2022/10/28 07:16:13;;;;;;;;;;;;;;;21.52;65.99;100128.13;7315527;19;129307;-34
2022/10/28 07:18:38;;;;;;;;;;;;;;;21.44;65.52;100119.25;7316443;19;128901;-35
2022/10/28 07:21:04;;;;;;;;;;;;;;;21.58;65.94;100140.72;7318086;19;129016;-36
2022/10/28 07:23:33;;;;;;;;;;;;;;;21.56;65.62;100142.63;7317282;19;129418;-36
2022/10/28 07:25:58;;;;;;;;;;;;;;;21.55;66.08;100138.34;7315391;19;129191;-35
2022/10/28 07:28:24;;;;;;;;;;;;;;;21.56;66.04;100153.09;7313909;19;129243;-34
2022/10/28 07:30:50;;;;;;;;;;;;;;;21.54;65.60;100149.75;7317170;19;129102;-35
2022/10/28 07:33:15;;;;;;;;;;;;;;;21.58;65.48;100145.94;7316715;19;130420;-36
2022/10/28 07:35:41;;;;;;;;;;;;;;;21.55;65.95;100148.78;7316421;19;129173;-37
2022/10/28 07:38:06;;;;;;;;;;;;;;;21.54;66.34;100151.53;7315692;19;129145;-36
2022/10/28 07:40:32;;;;;;;;;;;;;;;21.53;65.87;100149.91;7318292;19;129355;-37
2022/10/28 07:42:57;;;;;;;;;;;;;;;21.52;66.01;100154.28;7317506;19;130995;-36
2022/10/28 07:45:23;;;;;;;;;;;;;;;21.56;65.76;100153.09;7314121;19;130324;-35
2022/10/28 07:47:48;;;;;;;;;;;;;;;21.58;66.07;100161.66;7315170;19;130509;-34
2022/10/28 07:50:13;;;;;;;;;;;;;;;21.54;65.77;100157.63;7318601;19;129493;-34
2022/10/28 07:52:38;;;;;;;;;;;;;;;21.54;65.85;100162.84;7316292;19;129884;-35
2022/10/28 07:55:04;;;;;;;;;;;;;;;21.55;65.84;100159.25;7315925;19;129607;-35
2022/10/28 07:57:30;;;;;;;;;;;;;;;21.51;65.82;100157.88;7315985;19;129838;-34
2022/10/28 07:59:55;;;;;;;;;;;;;;;21.53;66.25;100158.59;7317979;19;129261;-35
2022/10/28 08:02:21;;;;;;;;;;;;;;;21.56;66.16;100166.19;7316816;19;129771;-36
2022/10/28 08:04:47;;;;;;;;;;;;;;;21.42;66.31;100153.38;7314946;19;129125;-35
2022/10/28 08:07:13;;;;;;;;;;;;;;;21.56;65.41;100166.19;7314666;19;129167;-35
2022/10/28 08:09:39;;;;;;;;;;;;;;;21.57;66.24;100162.59;7316932;19;129211;-32
2022/10/28 08:12:05;;;;;;;;;;;;;;;21.54;65.57;100162.00;7315974;19;129411;-34
2022/10/28 08:14:30;;;;;;;;;;;;;;;21.57;66.14;100157.34;7316009;19;130808;-37
2022/10/28 08:16:55;;;;;;;;;;;;;;;21.54;65.52;100152.38;7315808;19;128808;-36
2022/10/28 08:19:20;;;;;;;;;;;;;;;21.53;65.53;100160.34;7315943;19;129467;-36
2022/10/28 08:21:46;;;;;;;;;;;;;;;21.53;66.14;100155.13;7315274;19;129558;-34
2022/10/28 08:24:11;;;;;;;;;;;;;;;21.54;65.68;100159.38;7315460;19;129722;-36
2022/10/28 08:26:36;;;;;;;;;;;;;;;21.55;65.48;100154.03;7313802;19;129208;-35
2022/10/28 08:29:01;;;;;;;;;;;;;;;21.44;66.00;100133.16;7315427;19;128908;-35
2022/10/28 08:31:26;;;;;;;;;;;;;;;21.54;66.11;100157.63;7315383;19;129505;-36
2022/10/28 08:33:52;;;;;;;;;;;;;;;21.55;66.25;100151.41;7315917;19;129311;-33
2022/10/28 08:36:17;;;;;;;;;;;;;;;21.54;66.37;100162.84;7314611;19;128933;-37
2022/10/28 08:38:43;;;;;;;;;;;;;;;21.54;65.99;100160.22;7315796;19;129092;-35
2022/10/28 08:41:14;;;;;;;;;;;;;;;21.54;66.28;100162.84;7315524;19;129077;-35
2022/10/28 08:43:45;;;;;;;;;;;;;;;21.55;66.08;100164.50;7314536;19;129407;-38
2022/10/28 08:46:19;;;;;;;;;;;;;;;21.56;65.59;100166.19;7313001;19;128982;-33
2022/10/28 08:48:44;;;;;;;;;;;;;;;21.56;65.97;100160.94;7313753;19;129528;-35
2022/10/28 08:51:28;;;;;;;;;;;;;;;21.57;65.38;100159.13;7315426;19;129573;-34
2022/10/28 08:53:59;;;;;;;;;;;;;;;21.54;65.75;100156.78;7313117;19;129483;-34
2022/10/28 08:56:36;;;;;;;;;;;;;;;21.59;65.35;100152.84;7312720;19;130595;-35
2022/10/28 08:59:05;;;;;;;;;;;;;;;21.57;66.07;100154.75;7313138;19;129243;-34
2022/10/28 09:01:48;;;;;;;;;;;;;;;21.57;65.88;100151.28;7310336;19;130325;-36
2022/10/28 09:04:16;;;;;;;;;;;;;;;21.56;66.14;100144.41;7313333;19;130586;-35
2022/10/28 09:06:41;;;;;;;;;;;;;;;21.57;65.92;100146.91;7310839;19;130123;-36
2022/10/28 09:09:11;;;;;;;;;;;;;;;21.57;65.45;100146.91;7314499;19;129966;-35
2022/10/28 09:11:48;;;;;;;;;;;;;;;21.55;66.17;100156.66;7314577;19;129370;-36
2022/10/28 09:14:29;;;;;;;;;;;;;;;21.56;65.92;100145.25;7314945;19;129557;-36
2022/10/28 09:16:57;;;;;;;;;;;;;;;21.53;65.70;100140.28;7312500;19;129061;-36
2022/10/28 09:19:22;;;;;;;;;;;;;;;21.51;66.29;100136.94;7314858;19;129044;-34
2022/10/28 09:21:49;;;;;;;;;;;;;;;21.51;66.03;100136.94;7313820;19;129211;-32
2022/10/28 09:24:20;;;;;;;;;;;;;;;21.53;65.93;100142.88;7313605;19;129768;-36
2022/10/28 09:26:48;;;;;;;;;;;;;;;21.55;66.32;100143.56;7311949;19;128991;-33
2022/10/28 09:29:19;;;;;;;;;;;;;;;21.55;65.64;100143.56;7313533;19;128829;-32
2022/10/28 09:31:46;;;;;;;;;;;;;;;21.53;66.06;100135.03;7314321;19;129533;-36
2022/10/28 09:34:18;;;;;;;;;;;;;;;21.56;65.53;100133.94;7312906;19;129612;-36
2022/10/28 09:36:48;;;;;;;;;;;;;;;21.54;65.57;100138.47;7310720;19;129290;-37
2022/10/28 09:39:16;;;;;;;;;;;;;;;21.54;65.62;100136.69;7314535;19;128884;-34
2022/10/28 09:41:42;;;;;;;;;;;;;;;21.53;66.21;100140.28;7313097;19;129597;-36
2022/10/28 09:44:11;;;;;;;;;;;;;;;21.55;65.64;100146.19;7312694;19;129592;-33
2022/10/28 09:46:37;;;;;;;;;;;;;;;21.52;65.89;100143.81;7308992;19;128892;-33
2022/10/28 09:49:04;;;;;;;;;;;;;;;21.59;65.83;100141.53;7310556;19;129065;-36
2022/10/28 09:51:46;;;;;;;;;;;;;;;21.54;66.27;100141.06;7312447;19;129942;-37
2022/10/28 09:54:12;;;;;;;;;;;;;;;21.52;66.39;100128.13;7311290;19;129245;-32
2022/10/28 09:56:38;;;;;;;;;;;;;;;21.52;66.53;100125.50;7309928;19;129292;-35
2022/10/28 09:59:03;;;;;;;;;;;;;;;21.46;65.60;100106.88;7312662;19;129597;-35
2022/10/28 10:01:31;;;;;;;;;;;;;;;21.57;65.52;100123.34;7313724;19;129457;-35
2022/10/28 10:03:56;;;;;;;;;;;;;;;21.55;65.83;100117.41;7311966;19;129750;-36
2022/10/28 10:06:24;;;;;;;;;;;;;;;21.54;65.93;100120.16;7311074;19;129399;-37
2022/10/28 10:08:50;;;;;;;;;;;;;;;21.52;66.32;100111.59;7313070;19;129202;-35
2022/10/28 10:11:23;;;;;;;;;;;;;;;21.51;65.78;100100.31;7313239;19;129688;-35
2022/10/28 10:13:49;;;;;;;;;;;;;;;21.47;66.27;100085.00;7311796;19;129198;-35
2022/10/28 10:16:20;;;;;;;;;;;;;;;21.49;65.88;100076.06;7311326;19;129201;-34
2022/10/28 10:18:48;;;;;;;;;;;;;;;21.54;65.74;100086.97;7310623;19;129509;-33
2022/10/28 10:21:15;;;;;;;;;;;;;;;21.54;66.17;100084.34;7303936;19;129093;-36
2022/10/28 10:23:40;;;;;;;;;;;;;;;21.57;66.09;100086.72;7306708;19;131195;-35
2022/10/28 10:26:07;;;;;;;;;;;;;;;21.56;66.19;100092.06;7310131;19;129738;-35
2022/10/28 10:28:35;;;;;;;;;;;;;;;21.55;65.76;100086.00;7316214;19;129929;-36
2022/10/28 10:31:02;;;;;;;;;;;;;;;21.57;65.51;100084.09;7317765;19;129117;-34
2022/10/28 10:33:30;;;;;;;;;;;;;;;21.53;65.82;100069.63;7319231;19;129730;-36
2022/10/28 10:35:57;;;;;;;;;;;;;;;21.44;66.27;100065.16;7317771;19;129602;-36
2022/10/28 10:38:22;;;;;;;;;;;;;;;21.42;66.46;100069.66;7313783;19;128936;-37
2022/10/28 10:40:49;;;;;;;;;;;;;;;21.44;65.69;100059.91;7314459;19;129118;-35
2022/10/28 10:43:17;;;;;;;;;;;;;;;21.47;65.17;100062.28;7317613;19;129182;-36
2022/10/28 10:46:02;;;;;;;;;;;;;;;21.53;65.42;100061.78;7314334;19;129240;-34
2022/10/28 10:48:35;;;;;;;;;;;;;;;21.53;65.31;100055.72;7312266;19;129572;-36
2022/10/28 10:51:05;;;;;;;;;;;;;;;21.48;64.70;100050.03;7316263;19;130358;-36
2022/10/28 10:53:31;;;;;;;;;;;;;;;21.55;64.95;100053.81;7317426;19;129239;-36
2022/10/28 10:55:59;;;;;;;;;;;;;;;21.48;65.18;100048.25;7317608;19;129644;-34
2022/10/28 10:58:26;;;;;;;;;;;;;;;21.45;65.38;100043.25;7315823;19;129120;-35
2022/10/28 11:00:53;;;;;;;;;;;;;;;21.47;64.59;100051.81;7313308;19;128972;-33
2022/10/28 11:03:24;;;;;;;;;;;;;;;21.50;64.48;100041.09;7318054;19;130558;-36
2022/10/28 11:05:54;;;;;;;;;;;;;;;21.48;64.97;100047.41;7317156;19;129236;-33
2022/10/28 11:08:40;;;;;;;;;;;;;;;21.34;65.37;100025.00;7313929;19;129207;-34
2022/10/28 11:11:07;;;;;;;;;;;;;;;21.46;64.66;100038.84;7313760;19;129465;-34
2022/10/28 11:13:33;;;;;;;;;;;;;;;21.46;65.14;100036.25;7316697;19;129151;-35
2022/10/28 11:15:59;;;;;;;;;;;;;;;21.48;64.32;100027.31;7317295;19;128910;-34
2022/10/28 11:18:25;;;;;;;;;;;;;;;21.57;64.88;100026.53;7312129;19;129217;-33
2022/10/28 11:20:50;;;;;;;;;;;;;;;21.56;65.08;100021.44;7314588;19;132011;-34
2022/10/28 11:23:15;;;;;;;;;;;;;;;21.50;64.48;100014.13;7314932;19;129713;-36
2022/10/28 11:25:49;;;;;;;;;;;;;;;21.55;64.54;100007.53;7313438;19;129093;-36
2022/10/28 11:28:17;;;;;;;;;;;;;;;21.54;64.20;100003.25;7315461;19;130564;-36
2022/10/28 11:30:54;;;;;;;;;;;;;;;21.63;64.66;99994.63;7318305;19;129948;-34
2022/10/28 11:33:23;;;;;;;;;;;;;;;21.55;64.31;99997.06;7315957;19;129727;-35
2022/10/28 11:35:56;;;;;;;;;;;;;;;21.56;64.48;99993.50;7316029;19;129110;-36
2022/10/28 11:38:30;;;;;;;;;;;;;;;21.54;64.86;99998.03;7314191;19;129084;-34
2022/10/28 11:41:07;;;;;;;;;;;;;;;21.61;64.17;100000.94;7316664;19;129516;-35
2022/10/28 11:43:37;;;;;;;;;;;;;;;21.59;64.36;99993.22;7317032;19;129255;-35
2022/10/28 11:46:03;;;;;;;;;;;;;;;21.59;64.64;99992.38;7316673;19;128958;-35
2022/10/28 11:48:38;;;;;;;;;;;;;;;21.61;64.00;99993.94;7314723;19;129219;-36
2022/10/28 11:51:26;;;;;;;;;;;;;;;21.57;64.44;99987.28;7316465;19;129450;-34
2022/10/28 11:53:59;;;;;;;;;;;;;;;21.56;64.28;99983.03;7314123;19;129300;-32
2022/10/28 11:56:32;;;;;;;;;;;;;;;21.62;63.76;99987.72;7316273;19;130163;-36
2022/10/28 11:59:04;;;;;;;;;;;;;;;21.47;64.53;99972.53;7317388;19;128862;-34
2022/10/28 12:01:35;;;;;;;;;;;;;;;21.54;64.65;99984.94;7317466;19;129307;-35
2022/10/28 12:04:03;;;;;;;;;;;;;;;21.47;64.89;99972.53;7315450;19;129779;-35
2022/10/28 12:06:28;;;;;;;;;;;;;;;21.53;64.76;99980.69;7315593;19;129152;-36
2022/10/28 12:09:08;;;;;;;;;;;;;;;21.50;64.61;99978.28;7315886;19;128863;-36
2022/10/28 12:11:36;;;;;;;;;;;;;;;21.55;64.97;99976.13;7316372;19;129076;-36
2022/10/28 12:14:02;;;;;;;;;;;;;;;21.51;65.07;99973.91;7316500;19;129627;-33
2022/10/28 12:16:27;;;;;;;;;;;;;;;21.50;64.67;99967.03;7314934;19;128873;-34
2022/10/28 12:18:56;;;;;;;;;;;;;;;21.56;64.54;99972.56;7316039;19;128814;-36
2022/10/28 12:21:32;;;;;;;;;;;;;;;21.50;65.28;99967.84;7315649;19;129184;-35
2022/10/28 12:23:58;;;;;;;;;;;;;;;21.50;64.79;99965.22;7317083;19;129522;-36
2022/10/28 12:26:43;;;;;;;;;;;;;;;21.47;64.63;99957.63;7315766;19;129090;-34
2022/10/28 12:29:15;;;;;;;;;;;;;;;21.50;64.86;99962.59;7317416;19;130865;-33
2022/10/28 12:31:52;;;;;;;;;;;;;;;21.51;64.51;99953.81;7314901;19;129245;-35